PWSweather.com
Personal Weather Stations
Station Observations
KJ4AJP
Beautiful Downtown Gardner, Martin, TN 38237

Beautiful Downtown GardnerMartin, TN 38237

Lat: 36.358, Lon: -88.8994

Elevation: 384.3

Station Type: TP1080WC

http://weather.mambm.com/

High Low Average
Temperature 59.9°F15.5°C 48.2°F9.0°C 55.3°F12.9°C
Dew Point 59.6°F15.3°C 47.9°F8.8°C 55.0°F12.8°C
Winds 9.2 mph 14.8 kmh 0.7 mph 1.1 kmh 3.0 mph SSE4.8 kmh SSE
Wind Gusts 18.3 mph29.5 kmh 3.1 mph5.0 kmh 10.0 mph16.1 kmh
Humidity 99% 99% 99%
Pressure 30.09 in1019.0 mb 29.88 in1011.9 mb -
Precipitation 0.02 in0.5 mm - -
Hour Temp Dew Point Humidity Winds Wind Gusts Pressure Precip Precip Rate Daily Precip Total
12:00 AM 48.0°F8.9°C 47.8°F8.8°C 99% 2.2 mph E3.5 kmh E 3.8 mph6.1 kmh 30.09 in1019.0 mb 0.00 in0.0 mm 0.00 in0.0 mm 0.01 in0.3 mm
12:15 AM 48.0°F8.9°C 47.8°F8.8°C 99% 0.7 mph E1.1 kmh E 3.8 mph6.1 kmh 30.09 in1019.0 mb 0.00 in0.0 mm 0.00 in0.0 mm 0.01 in0.3 mm
12:30 AM 48.2°F9.0°C 47.9°F8.8°C 99% 1.6 mph SE2.6 kmh SE 3.8 mph6.1 kmh 30.10 in1019.3 mb 0.00 in0.0 mm 0.00 in0.0 mm 0.01 in0.3 mm
12:45 AM 48.2°F9.0°C 47.9°F8.8°C 99% 0.7 mph SE1.1 kmh SE 4.5 mph7.2 kmh 30.10 in1019.3 mb 0.00 in0.0 mm 0.00 in0.0 mm 0.01 in0.3 mm
01:00 AM 48.2°F9.0°C 47.9°F8.8°C 99% 1.6 mph SE2.6 kmh SE 4.5 mph7.2 kmh 30.09 in1019.0 mb 0.00 in0.0 mm 0.00 in0.0 mm 0.00 in0.0 mm
01:15 AM 48.2°F9.0°C 47.9°F8.8°C 99% 2.2 mph SE3.5 kmh SE 5.4 mph8.7 kmh 30.08 in1018.6 mb 0.00 in0.0 mm 0.00 in0.0 mm 0.00 in0.0 mm
01:30 AM 48.4°F9.1°C 48.1°F8.9°C 99% 2.2 mph SE3.5 kmh SE 4.5 mph7.2 kmh 30.08 in1018.6 mb 0.00 in0.0 mm 0.00 in0.0 mm 0.00 in0.0 mm
01:45 AM 48.4°F9.1°C 48.1°F8.9°C 99% 0.7 mph SE1.1 kmh SE 3.8 mph6.1 kmh 30.08 in1018.6 mb 0.00 in0.0 mm 0.00 in0.0 mm 0.00 in0.0 mm
02:00 AM 48.4°F9.1°C 48.1°F8.9°C 99% 4.5 mph SE7.2 kmh SE 6.0 mph9.7 kmh 30.08 in1018.6 mb 0.00 in0.0 mm 0.00 in0.0 mm 0.00 in0.0 mm
02:15 AM 48.7°F9.3°C 48.5°F9.2°C 99% 0.7 mph SE1.1 kmh SE 6.0 mph9.7 kmh 30.07 in1018.3 mb 0.00 in0.0 mm 0.00 in0.0 mm 0.00 in0.0 mm
02:30 AM 49.1°F9.5°C 48.8°F9.3°C 99% 1.6 mph SE2.6 kmh SE 6.0 mph9.7 kmh 30.06 in1017.9 mb 0.00 in0.0 mm 0.00 in0.0 mm 0.00 in0.0 mm
02:45 AM 49.1°F9.5°C 48.8°F9.3°C 99% 1.6 mph SSE2.6 kmh SSE 3.8 mph6.1 kmh 30.07 in1018.3 mb 0.00 in0.0 mm 0.00 in0.0 mm 0.00 in0.0 mm
03:00 AM 49.3°F9.6°C 49.0°F9.4°C 99% 1.6 mph SSE2.6 kmh SSE 6.0 mph9.7 kmh 30.06 in1017.9 mb 0.00 in0.0 mm 0.00 in0.0 mm 0.00 in0.0 mm
03:15 AM 49.5°F9.7°C 49.2°F9.6°C 99% 1.6 mph SSE2.6 kmh SSE 6.0 mph9.7 kmh 30.06 in1017.9 mb 0.00 in0.0 mm 0.00 in0.0 mm 0.00 in0.0 mm
03:30 AM 49.6°F9.8°C 49.4°F9.7°C 99% 1.6 mph SSE2.6 kmh SSE 5.4 mph8.7 kmh 30.07 in1018.3 mb 0.00 in0.0 mm 0.00 in0.0 mm 0.00 in0.0 mm
03:45 AM 49.8°F9.9°C 49.6°F9.8°C 99% 1.6 mph SE2.6 kmh SE 7.6 mph12.2 kmh 30.06 in1017.9 mb 0.00 in0.0 mm 0.00 in0.0 mm 0.00 in0.0 mm
04:00 AM 50.2°F10.1°C 49.9°F9.9°C 99% 2.2 mph SSE3.5 kmh SSE 6.0 mph9.7 kmh 30.06 in1017.9 mb 0.00 in0.0 mm 0.00 in0.0 mm 0.00 in0.0 mm
04:15 AM 50.4°F10.2°C 50.1°F10.1°C 99% 1.6 mph SSE2.6 kmh SSE 6.9 mph11.1 kmh 30.06 in1017.9 mb 0.00 in0.0 mm 0.00 in0.0 mm 0.00 in0.0 mm
04:30 AM 50.7°F10.4°C 50.5°F10.3°C 99% 0.7 mph S1.1 kmh S 4.5 mph7.2 kmh 30.06 in1017.9 mb 0.00 in0.0 mm 0.00 in0.0 mm 0.00 in0.0 mm
04:45 AM 50.7°F10.4°C 50.5°F10.3°C 99% 1.6 mph S2.6 kmh S 5.4 mph8.7 kmh 30.06 in1017.9 mb 0.00 in0.0 mm 0.00 in0.0 mm 0.00 in0.0 mm
05:00 AM 50.7°F10.4°C 50.5°F10.3°C 99% 0.7 mph S1.1 kmh S 3.8 mph6.1 kmh 30.06 in1017.9 mb 0.00 in0.0 mm 0.00 in0.0 mm 0.00 in0.0 mm
05:15 AM 50.9°F10.5°C 50.6°F10.3°C 99% 0.7 mph SE1.1 kmh SE 3.1 mph5.0 kmh 30.05 in1017.6 mb 0.00 in0.0 mm 0.00 in0.0 mm 0.00 in0.0 mm
05:30 AM 50.9°F10.5°C 50.6°F10.3°C 99% 0.7 mph SE1.1 kmh SE 3.8 mph6.1 kmh 30.06 in1017.9 mb 0.01 in0.3 mm 0.04 in1.0 mm 0.01 in0.3 mm
05:45 AM 50.9°F10.5°C 50.6°F10.3°C 99% 1.6 mph S2.6 kmh S 3.8 mph6.1 kmh 30.05 in1017.6 mb 0.01 in0.3 mm 0.00 in0.0 mm 0.01 in0.3 mm
06:00 AM 51.1°F10.6°C 50.8°F10.4°C 99% 0.7 mph SSE1.1 kmh SSE 7.6 mph12.2 kmh 30.06 in1017.9 mb 0.01 in0.3 mm 0.00 in0.0 mm 0.01 in0.3 mm
06:15 AM 51.4°F10.8°C 51.2°F10.7°C 99% 2.2 mph SE3.5 kmh SE 7.6 mph12.2 kmh 30.05 in1017.6 mb 0.01 in0.3 mm 0.00 in0.0 mm 0.01 in0.3 mm
06:30 AM 51.8°F11.0°C 51.5°F10.8°C 99% 3.8 mph SSE6.1 kmh SSE 9.2 mph14.8 kmh 30.05 in1017.6 mb 0.00 in0.0 mm 0.00 in0.0 mm 0.01 in0.3 mm
06:45 AM 51.8°F11.0°C 51.5°F10.8°C 99% 1.6 mph SSE2.6 kmh SSE 7.6 mph12.2 kmh 30.06 in1017.9 mb 0.00 in0.0 mm 0.00 in0.0 mm 0.01 in0.3 mm
07:00 AM 51.8°F11.0°C 51.5°F10.8°C 99% 0.7 mph SE1.1 kmh SE 7.6 mph12.2 kmh 30.06 in1017.9 mb 0.00 in0.0 mm 0.00 in0.0 mm 0.01 in0.3 mm
07:15 AM 51.8°F11.0°C 51.5°F10.8°C 99% 2.2 mph S3.5 kmh S 8.3 mph13.4 kmh 30.05 in1017.6 mb 0.00 in0.0 mm 0.00 in0.0 mm 0.01 in0.3 mm
07:30 AM 51.8°F11.0°C 51.5°F10.8°C 99% 3.1 mph SSE5.0 kmh SSE 7.6 mph12.2 kmh 30.05 in1017.6 mb 0.00 in0.0 mm 0.00 in0.0 mm 0.01 in0.3 mm
07:45 AM 51.8°F11.0°C 51.5°F10.8°C 99% 2.2 mph SSE3.5 kmh SSE 7.6 mph12.2 kmh 30.06 in1017.9 mb 0.00 in0.0 mm 0.00 in0.0 mm 0.01 in0.3 mm
08:00 AM 51.8°F11.0°C 51.5°F10.8°C 99% 3.1 mph SSE5.0 kmh SSE 7.6 mph12.2 kmh 30.06 in1017.9 mb 0.00 in0.0 mm 0.00 in0.0 mm 0.01 in0.3 mm
08:15 AM 51.8°F11.0°C 51.5°F10.8°C 99% 1.6 mph SSE2.6 kmh SSE 5.4 mph8.7 kmh 30.06 in1017.9 mb 0.00 in0.0 mm 0.00 in0.0 mm 0.01 in0.3 mm
08:30 AM 51.6°F10.9°C 51.4°F10.8°C 99% 2.2 mph SSE3.5 kmh SSE 4.5 mph7.2 kmh 30.06 in1017.9 mb 0.00 in0.0 mm 0.00 in0.0 mm 0.01 in0.3 mm
08:45 AM 51.8°F11.0°C 51.5°F10.8°C 99% 1.6 mph SSE2.6 kmh SSE 6.9 mph11.1 kmh 30.06 in1017.9 mb 0.00 in0.0 mm 0.00 in0.0 mm 0.01 in0.3 mm
09:00 AM 51.8°F11.0°C 51.5°F10.8°C 99% 1.6 mph S2.6 kmh S 6.0 mph9.7 kmh 30.06 in1017.9 mb 0.00 in0.0 mm 0.00 in0.0 mm 0.01 in0.3 mm
09:15 AM 52.2°F11.2°C 51.9°F11.1°C 99% 3.1 mph SSE5.0 kmh SSE 8.3 mph13.4 kmh 30.06 in1017.9 mb 0.00 in0.0 mm 0.00 in0.0 mm 0.01 in0.3 mm
09:30 AM 52.9°F11.6°C 52.6°F11.4°C 99% 7.6 mph S12.2 kmh S 16.8 mph27.0 kmh 30.06 in1017.9 mb 0.00 in0.0 mm 0.00 in0.0 mm 0.01 in0.3 mm
09:45 AM 53.2°F11.8°C 53.0°F11.7°C 99% 3.8 mph SSE6.1 kmh SSE 10.7 mph17.2 kmh 30.06 in1017.9 mb 0.00 in0.0 mm 0.00 in0.0 mm 0.01 in0.3 mm
10:00 AM 53.6°F12.0°C 53.3°F11.8°C 99% 5.4 mph SSE8.7 kmh SSE 12.1 mph19.5 kmh 30.07 in1018.3 mb 0.00 in0.0 mm 0.00 in0.0 mm 0.01 in0.3 mm
10:15 AM 53.6°F12.0°C 53.3°F11.8°C 99% 3.8 mph S6.1 kmh S 9.8 mph15.8 kmh 30.08 in1018.6 mb 0.00 in0.0 mm 0.00 in0.0 mm 0.01 in0.3 mm
10:30 AM 54.0°F12.2°C 53.7°F12.1°C 99% 2.2 mph SSE3.5 kmh SSE 10.7 mph17.2 kmh 30.08 in1018.6 mb 0.00 in0.0 mm 0.00 in0.0 mm 0.01 in0.3 mm
10:45 AM 54.1°F12.3°C 53.9°F12.2°C 99% 2.2 mph S3.5 kmh S 7.6 mph12.2 kmh 30.09 in1019.0 mb 0.00 in0.0 mm 0.00 in0.0 mm 0.01 in0.3 mm
11:00 AM 54.3°F12.4°C 54.1°F12.3°C 99% 1.6 mph S2.6 kmh S 6.9 mph11.1 kmh 30.08 in1018.6 mb 0.00 in0.0 mm 0.00 in0.0 mm 0.01 in0.3 mm
11:15 AM 54.7°F12.6°C 54.4°F12.4°C 99% 3.8 mph SSE6.1 kmh SSE 7.6 mph12.2 kmh 30.07 in1018.3 mb 0.00 in0.0 mm 0.00 in0.0 mm 0.01 in0.3 mm
11:30 AM 55.2°F12.9°C 55.0°F12.8°C 99% 3.1 mph S5.0 kmh S 7.6 mph12.2 kmh 30.07 in1018.3 mb 0.00 in0.0 mm 0.00 in0.0 mm 0.01 in0.3 mm
11:45 AM 55.6°F13.1°C 55.3°F12.9°C 99% 3.8 mph S6.1 kmh S 9.8 mph15.8 kmh 30.06 in1017.9 mb 0.00 in0.0 mm 0.00 in0.0 mm 0.01 in0.3 mm
12:00 PM 55.9°F13.3°C 55.7°F13.2°C 99% 6.0 mph SSE9.7 kmh SSE 13.6 mph21.9 kmh 30.05 in1017.6 mb 0.00 in0.0 mm 0.00 in0.0 mm 0.01 in0.3 mm
12:15 PM 56.3°F13.5°C 56.0°F13.3°C 99% 4.5 mph SSE7.2 kmh SSE 10.7 mph17.2 kmh 30.04 in1017.3 mb 0.00 in0.0 mm 0.00 in0.0 mm 0.01 in0.3 mm
12:30 PM 56.7°F13.7°C 56.4°F13.6°C 99% 6.9 mph S11.1 kmh S 14.5 mph23.3 kmh 30.04 in1017.3 mb 0.00 in0.0 mm 0.00 in0.0 mm 0.01 in0.3 mm
12:45 PM 57.2°F14.0°C 56.9°F13.8°C 99% 7.6 mph S12.2 kmh S 15.2 mph24.5 kmh 30.03 in1016.9 mb 0.00 in0.0 mm 0.00 in0.0 mm 0.01 in0.3 mm
01:00 PM 57.4°F14.1°C 57.1°F13.9°C 99% 6.0 mph SSE9.7 kmh SSE 15.2 mph24.5 kmh 30.01 in1016.3 mb 0.00 in0.0 mm 0.00 in0.0 mm 0.01 in0.3 mm
01:15 PM 57.4°F14.1°C 57.1°F13.9°C 99% 7.6 mph SSE12.2 kmh SSE 14.5 mph23.3 kmh 30.01 in1016.3 mb 0.00 in0.0 mm 0.00 in0.0 mm 0.01 in0.3 mm
01:30 PM 57.6°F14.2°C 57.3°F14.1°C 99% 5.4 mph S8.7 kmh S 15.9 mph25.6 kmh 30.00 in1015.9 mb 0.00 in0.0 mm 0.00 in0.0 mm 0.01 in0.3 mm
01:45 PM 57.6°F14.2°C 57.3°F14.1°C 99% 3.1 mph S5.0 kmh S 18.3 mph29.5 kmh 30.00 in1015.9 mb 0.00 in0.0 mm 0.00 in0.0 mm 0.01 in0.3 mm
02:00 PM 57.4°F14.1°C 57.1°F13.9°C 99% 5.4 mph SSE8.7 kmh SSE 15.2 mph24.5 kmh 29.99 in1015.6 mb 0.00 in0.0 mm 0.00 in0.0 mm 0.01 in0.3 mm
02:15 PM 57.6°F14.2°C 57.3°F14.1°C 99% 4.5 mph S7.2 kmh S 13.6 mph21.9 kmh 29.98 in1015.2 mb 0.00 in0.0 mm 0.00 in0.0 mm 0.01 in0.3 mm
02:30 PM 58.1°F14.5°C 57.8°F14.3°C 99% 6.0 mph SSE9.7 kmh SSE 13.0 mph20.9 kmh 29.97 in1014.9 mb 0.00 in0.0 mm 0.00 in0.0 mm 0.01 in0.3 mm
02:45 PM 58.6°F14.8°C 58.4°F14.7°C 99% 8.3 mph SSE13.4 kmh SSE 14.5 mph23.3 kmh 29.97 in1014.9 mb 0.00 in0.0 mm 0.00 in0.0 mm 0.01 in0.3 mm
03:00 PM 58.8°F14.9°C 58.6°F14.8°C 99% 5.4 mph S8.7 kmh S 15.9 mph25.6 kmh 29.96 in1014.6 mb 0.00 in0.0 mm 0.00 in0.0 mm 0.01 in0.3 mm
03:15 PM 58.8°F14.9°C 58.6°F14.8°C 99% 5.4 mph S8.7 kmh S 17.4 mph28.0 kmh 29.96 in1014.6 mb 0.00 in0.0 mm 0.00 in0.0 mm 0.01 in0.3 mm
03:30 PM 58.8°F14.9°C 58.6°F14.8°C 99% 7.6 mph SSE12.2 kmh SSE 13.6 mph21.9 kmh 29.96 in1014.6 mb 0.00 in0.0 mm 0.00 in0.0 mm 0.01 in0.3 mm
03:45 PM 58.8°F14.9°C 58.6°F14.8°C 99% 6.0 mph S9.7 kmh S 15.2 mph24.5 kmh 29.95 in1014.2 mb 0.00 in0.0 mm 0.00 in0.0 mm 0.01 in0.3 mm
04:00 PM 58.8°F14.9°C 58.6°F14.8°C 99% 5.4 mph S8.7 kmh S 13.0 mph20.9 kmh 29.95 in1014.2 mb 0.00 in0.0 mm 0.00 in0.0 mm 0.01 in0.3 mm
04:15 PM 58.8°F14.9°C 58.6°F14.8°C 99% 3.8 mph S6.1 kmh S 12.1 mph19.5 kmh 29.95 in1014.2 mb 0.00 in0.0 mm 0.00 in0.0 mm 0.01 in0.3 mm
04:30 PM 58.8°F14.9°C 58.6°F14.8°C 99% 3.8 mph SSE6.1 kmh SSE 12.1 mph19.5 kmh 29.95 in1014.2 mb 0.00 in0.0 mm 0.00 in0.0 mm 0.01 in0.3 mm
04:45 PM 58.8°F14.9°C 58.6°F14.8°C 99% 4.5 mph S7.2 kmh S 15.2 mph24.5 kmh 29.95 in1014.2 mb 0.00 in0.0 mm 0.00 in0.0 mm 0.01 in0.3 mm
05:00 PM 58.6°F14.8°C 58.4°F14.7°C 99% 3.8 mph S6.1 kmh S 9.8 mph15.8 kmh 29.94 in1013.9 mb 0.00 in0.0 mm 0.00 in0.0 mm 0.01 in0.3 mm
05:15 PM 58.6°F14.8°C 58.4°F14.7°C 99% 4.5 mph SSE7.2 kmh SSE 12.1 mph19.5 kmh 29.95 in1014.2 mb 0.00 in0.0 mm 0.00 in0.0 mm 0.01 in0.3 mm
05:30 PM 58.6°F14.8°C 58.4°F14.7°C 99% 3.1 mph SE5.0 kmh SE 10.7 mph17.2 kmh 29.94 in1013.9 mb 0.00 in0.0 mm 0.00 in0.0 mm 0.01 in0.3 mm
05:45 PM 58.6°F14.8°C 58.4°F14.7°C 99% 4.5 mph SE7.2 kmh SE 9.8 mph15.8 kmh 29.94 in1013.9 mb 0.00 in0.0 mm 0.00 in0.0 mm 0.01 in0.3 mm
06:00 PM 58.5°F14.7°C 58.2°F14.6°C 99% 4.5 mph SE7.2 kmh SE 12.1 mph19.5 kmh 29.94 in1013.9 mb 0.00 in0.0 mm 0.00 in0.0 mm 0.01 in0.3 mm
06:15 PM 58.5°F14.7°C 58.2°F14.6°C 99% 3.1 mph SSE5.0 kmh SSE 8.3 mph13.4 kmh 29.94 in1013.9 mb 0.00 in0.0 mm 0.00 in0.0 mm 0.01 in0.3 mm
06:30 PM 58.5°F14.7°C 58.2°F14.6°C 99% 2.2 mph SSE3.5 kmh SSE 9.8 mph15.8 kmh 29.94 in1013.9 mb 0.00 in0.0 mm 0.00 in0.0 mm 0.01 in0.3 mm
06:45 PM 58.6°F14.8°C 58.4°F14.7°C 99% 2.2 mph S3.5 kmh S 11.4 mph18.3 kmh 29.93 in1013.5 mb 0.00 in0.0 mm 0.00 in0.0 mm 0.01 in0.3 mm
07:00 PM 59.0°F15.0°C 58.7°F14.8°C 99% 5.4 mph S8.7 kmh S 12.1 mph19.5 kmh 29.93 in1013.5 mb 0.00 in0.0 mm 0.00 in0.0 mm 0.01 in0.3 mm
07:15 PM 59.4°F15.2°C 59.1°F15.1°C 99% 3.8 mph SSE6.1 kmh SSE 15.2 mph24.5 kmh 29.95 in1014.2 mb 0.00 in0.0 mm 0.00 in0.0 mm 0.01 in0.3 mm
07:30 PM 59.4°F15.2°C 59.1°F15.1°C 99% 3.1 mph S5.0 kmh S 10.7 mph17.2 kmh 29.94 in1013.9 mb 0.00 in0.0 mm 0.00 in0.0 mm 0.01 in0.3 mm
07:45 PM 59.2°F15.1°C 58.9°F14.9°C 99% 1.6 mph S2.6 kmh S 6.9 mph11.1 kmh 29.95 in1014.2 mb 0.00 in0.0 mm 0.00 in0.0 mm 0.01 in0.3 mm
08:00 PM 59.0°F15.0°C 58.7°F14.8°C 99% 1.6 mph SSE2.6 kmh SSE 6.0 mph9.7 kmh 29.94 in1013.9 mb 0.00 in0.0 mm 0.00 in0.0 mm 0.01 in0.3 mm
08:15 PM 58.8°F14.9°C 58.6°F14.8°C 99% 1.6 mph SSE2.6 kmh SSE 7.6 mph12.2 kmh 29.94 in1013.9 mb 0.00 in0.0 mm 0.00 in0.0 mm 0.01 in0.3 mm
08:30 PM 58.6°F14.8°C 58.4°F14.7°C 99% 2.2 mph S3.5 kmh S 9.2 mph14.8 kmh 29.93 in1013.5 mb 0.00 in0.0 mm 0.00 in0.0 mm 0.01 in0.3 mm
08:45 PM 58.6°F14.8°C 58.4°F14.7°C 99% 2.2 mph S3.5 kmh S 7.6 mph12.2 kmh 29.93 in1013.5 mb 0.00 in0.0 mm 0.00 in0.0 mm 0.01 in0.3 mm
09:00 PM 58.5°F14.7°C 58.2°F14.6°C 99% 1.6 mph SE2.6 kmh SE 5.4 mph8.7 kmh 29.93 in1013.5 mb 0.00 in0.0 mm 0.00 in0.0 mm 0.01 in0.3 mm
09:15 PM 58.6°F14.8°C 58.4°F14.7°C 99% 4.5 mph SE7.2 kmh SE 8.3 mph13.4 kmh 29.93 in1013.5 mb 0.00 in0.0 mm 0.00 in0.0 mm 0.01 in0.3 mm
09:30 PM 58.6°F14.8°C 58.4°F14.7°C 99% 1.6 mph SE2.6 kmh SE 9.2 mph14.8 kmh 29.93 in1013.5 mb 0.00 in0.0 mm 0.00 in0.0 mm 0.01 in0.3 mm
09:45 PM 58.6°F14.8°C 58.4°F14.7°C 99% 3.1 mph S5.0 kmh S 11.4 mph18.3 kmh 29.93 in1013.5 mb 0.00 in0.0 mm 0.00 in0.0 mm 0.01 in0.3 mm
10:00 PM 59.0°F15.0°C 58.7°F14.8°C 99% 2.2 mph SSE3.5 kmh SSE 9.8 mph15.8 kmh 29.92 in1013.2 mb 0.00 in0.0 mm 0.00 in0.0 mm 0.01 in0.3 mm
10:15 PM 59.2°F15.1°C 58.9°F14.9°C 99% 4.5 mph SSE7.2 kmh SSE 13.0 mph20.9 kmh 29.91 in1012.9 mb 0.00 in0.0 mm 0.00 in0.0 mm 0.01 in0.3 mm
10:30 PM 59.4°F15.2°C 59.1°F15.1°C 99% 9.2 mph SSE14.8 kmh SSE 14.5 mph23.3 kmh 29.91 in1012.9 mb 0.01 in0.3 mm 0.04 in1.0 mm 0.02 in0.5 mm
10:45 PM 59.5°F15.3°C 59.3°F15.2°C 99% 5.4 mph S8.7 kmh S 16.8 mph27.0 kmh 29.91 in1012.9 mb 0.01 in0.3 mm 0.00 in0.0 mm 0.02 in0.5 mm
11:00 PM 59.7°F15.4°C 59.5°F15.3°C 99% 3.1 mph SSE5.0 kmh SSE 15.2 mph24.5 kmh 29.91 in1012.9 mb 0.01 in0.3 mm 0.00 in0.0 mm 0.02 in0.5 mm
11:15 PM 59.7°F15.4°C 59.5°F15.3°C 99% 5.4 mph S8.7 kmh S 15.9 mph25.6 kmh 29.91 in1012.9 mb 0.01 in0.3 mm 0.00 in0.0 mm 0.02 in0.5 mm
11:30 PM 59.9°F15.5°C 59.6°F15.3°C 99% 8.3 mph S13.4 kmh S 15.2 mph24.5 kmh 29.91 in1012.9 mb 0.00 in0.0 mm 0.00 in0.0 mm 0.02 in0.5 mm
11:45 PM 59.9°F15.5°C 59.6°F15.3°C 99% 3.8 mph SSE6.1 kmh SSE 9.8 mph15.8 kmh 29.91 in1012.9 mb 0.00 in0.0 mm 0.00 in0.0 mm 0.02 in0.5 mm